sensor_id;sensor_type;location;lat;lon;timestamp;temperature;humidity
212;DHT22;16228;48.800;9.002;2022-08-20T00:00:04;20.50;96.90
212;DHT22;16228;48.800;9.002;2022-08-20T00:02:38;20.40;96.90
212;DHT22;16228;48.800;9.002;2022-08-20T00:05:05;20.40;96.90
212;DHT22;16228;48.800;9.002;2022-08-20T00:07:33;20.40;96.90
212;DHT22;16228;48.800;9.002;2022-08-20T00:10:00;20.30;96.90
212;DHT22;16228;48.800;9.002;2022-08-20T00:12:28;20.20;96.90
212;DHT22;16228;48.800;9.002;2022-08-20T00:14:55;20.20;96.90
212;DHT22;16228;48.800;9.002;2022-08-20T00:17:22;20.10;96.90
212;DHT22;16228;48.800;9.002;2022-08-20T00:19:49;20.10;96.90
212;DHT22;16228;48.800;9.002;2022-08-20T00:22:16;20.10;96.90
212;DHT22;16228;48.800;9.002;2022-08-20T00:24:44;20.00;96.90
212;DHT22;16228;48.800;9.002;2022-08-20T00:27:11;20.00;96.90
212;DHT22;16228;48.800;9.002;2022-08-20T00:29:38;19.90;96.90
212;DHT22;16228;48.800;9.002;2022-08-20T00:32:06;19.90;96.90
212;DHT22;16228;48.800;9.002;2022-08-20T00:34:33;19.80;96.90
212;DHT22;16228;48.800;9.002;2022-08-20T00:37:00;19.80;96.90
212;DHT22;16228;48.800;9.002;2022-08-20T00:39:27;19.70;96.90
212;DHT22;16228;48.800;9.002;2022-08-20T00:41:55;19.80;96.90
212;DHT22;16228;48.800;9.002;2022-08-20T00:44:22;19.80;96.90
212;DHT22;16228;48.800;9.002;2022-08-20T00:46:50;19.70;96.90
212;DHT22;16228;48.800;9.002;2022-08-20T00:49:19;19.80;96.90
212;DHT22;16228;48.800;9.002;2022-08-20T00:51:53;19.80;96.90
212;DHT22;16228;48.800;9.002;2022-08-20T00:54:25;19.80;96.90
212;DHT22;16228;48.800;9.002;2022-08-20T00:56:58;19.80;96.90
212;DHT22;16228;48.800;9.002;2022-08-20T00:59:27;19.80;96.90
212;DHT22;16228;48.800;9.002;2022-08-20T01:01:56;19.70;96.90
212;DHT22;16228;48.800;9.002;2022-08-20T01:04:24;19.70;96.90
212;DHT22;16228;48.800;9.002;2022-08-20T01:06:51;19.60;96.90
212;DHT22;16228;48.800;9.002;2022-08-20T01:09:18;19.50;96.90
212;DHT22;16228;48.800;9.002;2022-08-20T01:11:45;19.50;96.90
212;DHT22;16228;48.800;9.002;2022-08-20T01:14:14;19.40;96.90
212;DHT22;16228;48.800;9.002;2022-08-20T01:17:00;19.40;96.90
212;DHT22;16228;48.800;9.002;2022-08-20T01:19:31;19.40;96.90
212;DHT22;16228;48.800;9.002;2022-08-20T01:22:00;19.40;96.90
212;DHT22;16228;48.800;9.002;2022-08-20T01:24:53;19.40;96.90
212;DHT22;16228;48.800;9.002;2022-08-20T01:27:21;19.50;96.90
212;DHT22;16228;48.800;9.002;2022-08-20T01:29:50;19.50;96.90
212;DHT22;16228;48.800;9.002;2022-08-20T01:32:17;19.60;96.90
212;DHT22;16228;48.800;9.002;2022-08-20T01:34:44;19.60;96.90
212;DHT22;16228;48.800;9.002;2022-08-20T01:37:11;19.70;96.90
212;DHT22;16228;48.800;9.002;2022-08-20T01:39:38;19.70;96.90
212;DHT22;16228;48.800;9.002;2022-08-20T01:42:08;19.80;96.90
212;DHT22;16228;48.800;9.002;2022-08-20T01:44:41;19.80;96.90
212;DHT22;16228;48.800;9.002;2022-08-20T01:47:11;19.80;96.90
212;DHT22;16228;48.800;9.002;2022-08-20T01:49:41;19.90;96.90
212;DHT22;16228;48.800;9.002;2022-08-20T01:52:11;19.90;96.90
212;DHT22;16228;48.800;9.002;2022-08-20T01:54:40;20.00;96.90
212;DHT22;16228;48.800;9.002;2022-08-20T01:57:11;20.00;96.90
212;DHT22;16228;48.800;9.002;2022-08-20T01:59:40;20.00;96.90
212;DHT22;16228;48.800;9.002;2022-08-20T02:02:07;20.10;96.90
212;DHT22;16228;48.800;9.002;2022-08-20T02:04:34;20.00;96.90
212;DHT22;16228;48.800;9.002;2022-08-20T02:07:04;20.00;96.90
212;DHT22;16228;48.800;9.002;2022-08-20T02:09:33;20.00;96.90
212;DHT22;16228;48.800;9.002;2022-08-20T02:12:01;20.00;96.90
212;DHT22;16228;48.800;9.002;2022-08-20T02:14:29;20.00;96.90
212;DHT22;16228;48.800;9.002;2022-08-20T02:16:58;20.00;96.90
212;DHT22;16228;48.800;9.002;2022-08-20T02:19:29;19.90;96.90
212;DHT22;16228;48.800;9.002;2022-08-20T02:22:00;19.90;96.90
212;DHT22;16228;48.800;9.002;2022-08-20T02:24:29;19.80;96.90
212;DHT22;16228;48.800;9.002;2022-08-20T02:26:56;19.80;96.90
212;DHT22;16228;48.800;9.002;2022-08-20T02:29:23;19.80;96.90
212;DHT22;16228;48.800;9.002;2022-08-20T02:31:50;19.80;96.90
212;DHT22;16228;48.800;9.002;2022-08-20T02:34:20;19.80;96.90
212;DHT22;16228;48.800;9.002;2022-08-20T02:36:47;19.80;96.90
212;DHT22;16228;48.800;9.002;2022-08-20T02:39:14;19.80;96.90
212;DHT22;16228;48.800;9.002;2022-08-20T02:41:41;19.80;96.90
212;DHT22;16228;48.800;9.002;2022-08-20T02:44:09;19.80;96.90
212;DHT22;16228;48.800;9.002;2022-08-20T02:46:37;19.90;96.90
212;DHT22;16228;48.800;9.002;2022-08-20T02:49:04;19.90;96.90
212;DHT22;16228;48.800;9.002;2022-08-20T02:51:33;19.80;96.90
212;DHT22;16228;48.800;9.002;2022-08-20T02:54:00;19.80;96.90
212;DHT22;16228;48.800;9.002;2022-08-20T02:56:29;19.80;96.90
212;DHT22;16228;48.800;9.002;2022-08-20T02:58:56;19.80;96.90
212;DHT22;16228;48.800;9.002;2022-08-20T03:01:23;19.80;96.90
212;DHT22;16228;48.800;9.002;2022-08-20T03:03:50;19.80;96.90
212;DHT22;16228;48.800;9.002;2022-08-20T03:06:17;19.90;96.90
212;DHT22;16228;48.800;9.002;2022-08-20T03:08:47;19.90;96.90
212;DHT22;16228;48.800;9.002;2022-08-20T03:11:15;19.90;96.90
212;DHT22;16228;48.800;9.002;2022-08-20T03:13:42;19.90;96.90
212;DHT22;16228;48.800;9.002;2022-08-20T03:16:09;19.90;96.90
212;DHT22;16228;48.800;9.002;2022-08-20T03:18:42;19.90;96.90
212;DHT22;16228;48.800;9.002;2022-08-20T03:21:10;19.90;96.90
212;DHT22;16228;48.800;9.002;2022-08-20T03:23:38;19.80;96.90
212;DHT22;16228;48.800;9.002;2022-08-20T03:26:09;19.80;96.90
212;DHT22;16228;48.800;9.002;2022-08-20T03:28:37;19.80;96.90
212;DHT22;16228;48.800;9.002;2022-08-20T03:31:04;19.80;96.90
212;DHT22;16228;48.800;9.002;2022-08-20T03:33:32;19.80;96.90
212;DHT22;16228;48.800;9.002;2022-08-20T03:36:00;19.80;96.90
212;DHT22;16228;48.800;9.002;2022-08-20T03:38:27;19.80;96.90
212;DHT22;16228;48.800;9.002;2022-08-20T03:40:53;19.80;96.90
212;DHT22;16228;48.800;9.002;2022-08-20T03:43:22;19.90;96.90
212;DHT22;16228;48.800;9.002;2022-08-20T03:45:49;19.90;96.90
212;DHT22;16228;48.800;9.002;2022-08-20T03:48:19;19.90;96.90
212;DHT22;16228;48.800;9.002;2022-08-20T03:50:47;19.90;96.90
212;DHT22;16228;48.800;9.002;2022-08-20T03:53:15;19.90;96.90
212;DHT22;16228;48.800;9.002;2022-08-20T03:55:44;19.90;96.90
212;DHT22;16228;48.800;9.002;2022-08-20T03:58:13;20.00;96.90
212;DHT22;16228;48.800;9.002;2022-08-20T04:00:43;20.00;96.90
212;DHT22;16228;48.800;9.002;2022-08-20T04:03:11;20.00;96.90
212;DHT22;16228;48.800;9.002;2022-08-20T04:05:39;20.00;96.90
212;DHT22;16228;48.800;9.002;2022-08-20T04:08:07;20.00;96.90
212;DHT22;16228;48.800;9.002;2022-08-20T04:10:35;20.00;96.90
212;DHT22;16228;48.800;9.002;2022-08-20T04:13:03;20.00;96.90
212;DHT22;16228;48.800;9.002;2022-08-20T04:15:32;20.00;96.90
212;DHT22;16228;48.800;9.002;2022-08-20T04:18:02;20.00;96.90
212;DHT22;16228;48.800;9.002;2022-08-20T04:20:33;19.90;96.90
212;DHT22;16228;48.800;9.002;2022-08-20T04:23:00;19.80;96.90
212;DHT22;16228;48.800;9.002;2022-08-20T04:25:29;19.80;96.90
212;DHT22;16228;48.800;9.002;2022-08-20T04:27:56;19.80;96.90
212;DHT22;16228;48.800;9.002;2022-08-20T04:30:24;19.80;96.90
212;DHT22;16228;48.800;9.002;2022-08-20T04:32:51;19.80;96.90
212;DHT22;16228;48.800;9.002;2022-08-20T04:35:21;19.90;96.90
212;DHT22;16228;48.800;9.002;2022-08-20T04:37:49;19.90;96.90
212;DHT22;16228;48.800;9.002;2022-08-20T04:40:22;19.90;96.90
212;DHT22;16228;48.800;9.002;2022-08-20T04:43:07;19.90;96.90
212;DHT22;16228;48.800;9.002;2022-08-20T04:45:34;20.00;96.90
212;DHT22;16228;48.800;9.002;2022-08-20T04:48:02;20.00;96.90
212;DHT22;16228;48.800;9.002;2022-08-20T04:50:32;20.00;96.90
212;DHT22;16228;48.800;9.002;2022-08-20T04:53:01;20.00;96.90
212;DHT22;16228;48.800;9.002;2022-08-20T04:55:28;20.00;96.90
212;DHT22;16228;48.800;9.002;2022-08-20T04:58:02;20.10;96.90
212;DHT22;16228;48.800;9.002;2022-08-20T05:00:29;20.10;96.90
212;DHT22;16228;48.800;9.002;2022-08-20T05:02:56;20.10;96.90
212;DHT22;16228;48.800;9.002;2022-08-20T05:05:23;20.00;96.90
212;DHT22;16228;48.800;9.002;2022-08-20T05:07:52;20.00;96.90
212;DHT22;16228;48.800;9.002;2022-08-20T05:10:20;20.00;96.90
212;DHT22;16228;48.800;9.002;2022-08-20T05:12:48;20.00;96.90
212;DHT22;16228;48.800;9.002;2022-08-20T05:15:15;20.00;96.90
212;DHT22;16228;48.800;9.002;2022-08-20T05:17:43;20.00;96.90
212;DHT22;16228;48.800;9.002;2022-08-20T05:20:13;20.00;96.90
212;DHT22;16228;48.800;9.002;2022-08-20T05:22:42;20.00;96.90
212;DHT22;16228;48.800;9.002;2022-08-20T05:25:10;20.10;96.90
212;DHT22;16228;48.800;9.002;2022-08-20T05:27:37;20.20;96.90
212;DHT22;16228;48.800;9.002;2022-08-20T05:30:09;20.20;96.90
212;DHT22;16228;48.800;9.002;2022-08-20T05:32:37;20.30;96.90
212;DHT22;16228;48.800;9.002;2022-08-20T05:35:06;20.20;96.90
212;DHT22;16228;48.800;9.002;2022-08-20T05:37:34;20.20;96.90
212;DHT22;16228;48.800;9.002;2022-08-20T05:40:01;20.10;96.90
212;DHT22;16228;48.800;9.002;2022-08-20T05:42:29;20.10;96.90
212;DHT22;16228;48.800;9.002;2022-08-20T05:44:56;20.10;96.90
212;DHT22;16228;48.800;9.002;2022-08-20T05:47:23;20.20;96.90
212;DHT22;16228;48.800;9.002;2022-08-20T05:49:53;20.20;96.90
212;DHT22;16228;48.800;9.002;2022-08-20T05:52:20;20.30;96.90
212;DHT22;16228;48.800;9.002;2022-08-20T05:54:47;20.40;96.90
212;DHT22;16228;48.800;9.002;2022-08-20T05:57:16;20.50;96.90
212;DHT22;16228;48.800;9.002;2022-08-20T05:59:45;20.60;96.90
212;DHT22;16228;48.800;9.002;2022-08-20T06:02:13;20.70;96.90
212;DHT22;16228;48.800;9.002;2022-08-20T06:04:54;20.80;96.90
212;DHT22;16228;48.800;9.002;2022-08-20T06:07:21;20.90;96.90
212;DHT22;16228;48.800;9.002;2022-08-20T06:09:49;20.90;96.90
212;DHT22;16228;48.800;9.002;2022-08-20T06:12:16;21.00;96.90
212;DHT22;16228;48.800;9.002;2022-08-20T06:14:45;21.00;96.90
212;DHT22;16228;48.800;9.002;2022-08-20T06:17:14;21.00;96.90
212;DHT22;16228;48.800;9.002;2022-08-20T06:19:41;21.10;96.90
212;DHT22;16228;48.800;9.002;2022-08-20T06:22:09;21.10;96.90
212;DHT22;16228;48.800;9.002;2022-08-20T06:24:36;21.00;96.90
212;DHT22;16228;48.800;9.002;2022-08-20T06:27:04;21.00;96.90
212;DHT22;16228;48.800;9.002;2022-08-20T06:29:31;21.00;96.90
212;DHT22;16228;48.800;9.002;2022-08-20T06:32:00;21.00;96.90
212;DHT22;16228;48.800;9.002;2022-08-20T06:34:27;21.00;96.90
212;DHT22;16228;48.800;9.002;2022-08-20T06:36:54;20.90;96.90
212;DHT22;16228;48.800;9.002;2022-08-20T06:39:23;20.90;96.90
212;DHT22;16228;48.800;9.002;2022-08-20T06:41:50;20.90;96.90
212;DHT22;16228;48.800;9.002;2022-08-20T06:44:18;20.90;96.90
212;DHT22;16228;48.800;9.002;2022-08-20T06:46:45;21.00;96.90
212;DHT22;16228;48.800;9.002;2022-08-20T06:49:13;21.00;96.90
212;DHT22;16228;48.800;9.002;2022-08-20T06:51:40;21.00;96.90
212;DHT22;16228;48.800;9.002;2022-08-20T06:54:07;21.10;96.90
212;DHT22;16228;48.800;9.002;2022-08-20T06:56:34;21.10;96.90
212;DHT22;16228;48.800;9.002;2022-08-20T06:59:01;21.20;96.90
212;DHT22;16228;48.800;9.002;2022-08-20T07:01:28;21.30;96.90
212;DHT22;16228;48.800;9.002;2022-08-20T07:03:55;21.30;96.90
212;DHT22;16228;48.800;9.002;2022-08-20T07:06:26;21.40;96.90
212;DHT22;16228;48.800;9.002;2022-08-20T07:08:53;21.60;96.90
212;DHT22;16228;48.800;9.002;2022-08-20T07:11:20;21.80;96.90
212;DHT22;16228;48.800;9.002;2022-08-20T07:13:47;21.90;96.90
212;DHT22;16228;48.800;9.002;2022-08-20T07:16:14;22.10;96.90
212;DHT22;16228;48.800;9.002;2022-08-20T07:18:41;22.40;96.90
212;DHT22;16228;48.800;9.002;2022-08-20T07:21:09;22.60;96.90
212;DHT22;16228;48.800;9.002;2022-08-20T07:23:38;22.90;96.90
212;DHT22;16228;48.800;9.002;2022-08-20T07:26:06;23.10;96.90
212;DHT22;16228;48.800;9.002;2022-08-20T07:28:33;23.30;96.90
212;DHT22;16228;48.800;9.002;2022-08-20T07:31:00;23.40;96.90
212;DHT22;16228;48.800;9.002;2022-08-20T07:33:45;23.50;96.90
212;DHT22;16228;48.800;9.002;2022-08-20T07:36:12;23.60;96.90
212;DHT22;16228;48.800;9.002;2022-08-20T07:38:40;23.60;96.90
212;DHT22;16228;48.800;9.002;2022-08-20T07:41:11;23.70;96.90
212;DHT22;16228;48.800;9.002;2022-08-20T07:43:40;23.90;96.90
212;DHT22;16228;48.800;9.002;2022-08-20T07:46:08;23.90;96.90
212;DHT22;16228;48.800;9.002;2022-08-20T07:48:37;24.00;96.90
212;DHT22;16228;48.800;9.002;2022-08-20T07:51:05;24.10;96.90
212;DHT22;16228;48.800;9.002;2022-08-20T07:53:34;24.10;96.90
212;DHT22;16228;48.800;9.002;2022-08-20T07:56:06;24.20;96.90
212;DHT22;16228;48.800;9.002;2022-08-20T07:58:33;24.30;96.90
212;DHT22;16228;48.800;9.002;2022-08-20T08:01:03;24.40;96.90
212;DHT22;16228;48.800;9.002;2022-08-20T08:03:30;24.50;96.90
212;DHT22;16228;48.800;9.002;2022-08-20T08:05:57;24.60;96.90
212;DHT22;16228;48.800;9.002;2022-08-20T08:08:27;24.80;96.90
212;DHT22;16228;48.800;9.002;2022-08-20T08:10:57;24.90;96.90
212;DHT22;16228;48.800;9.002;2022-08-20T08:13:29;25.00;96.90
212;DHT22;16228;48.800;9.002;2022-08-20T08:15:59;25.10;96.90
212;DHT22;16228;48.800;9.002;2022-08-20T08:18:33;25.20;96.90
212;DHT22;16228;48.800;9.002;2022-08-20T08:21:01;25.20;96.90
212;DHT22;16228;48.800;9.002;2022-08-20T08:23:28;25.30;96.90
212;DHT22;16228;48.800;9.002;2022-08-20T08:25:55;25.40;96.90
212;DHT22;16228;48.800;9.002;2022-08-20T08:28:23;25.60;96.90
212;DHT22;16228;48.800;9.002;2022-08-20T08:30:55;25.90;96.90
212;DHT22;16228;48.800;9.002;2022-08-20T08:33:25;26.30;96.90
212;DHT22;16228;48.800;9.002;2022-08-20T08:35:59;26.60;96.90
212;DHT22;16228;48.800;9.002;2022-08-20T08:38:27;26.80;96.90
212;DHT22;16228;48.800;9.002;2022-08-20T08:40:56;26.90;96.90
212;DHT22;16228;48.800;9.002;2022-08-20T08:43:25;26.90;96.00
212;DHT22;16228;48.800;9.002;2022-08-20T08:45:58;27.00;96.90
212;DHT22;16228;48.800;9.002;2022-08-20T08:48:32;27.10;96.80
212;DHT22;16228;48.800;9.002;2022-08-20T08:51:03;27.10;96.90
212;DHT22;16228;48.800;9.002;2022-08-20T08:53:36;27.00;96.00
212;DHT22;16228;48.800;9.002;2022-08-20T08:56:05;27.00;96.90
212;DHT22;16228;48.800;9.002;2022-08-20T08:58:32;27.00;95.70
212;DHT22;16228;48.800;9.002;2022-08-20T09:01:03;26.80;94.70
212;DHT22;16228;48.800;9.002;2022-08-20T09:03:37;26.70;95.70
212;DHT22;16228;48.800;9.002;2022-08-20T09:06:12;26.40;96.10
212;DHT22;16228;48.800;9.002;2022-08-20T09:08:44;26.40;96.50
212;DHT22;16228;48.800;9.002;2022-08-20T09:11:13;26.30;95.70
212;DHT22;16228;48.800;9.002;2022-08-20T09:13:40;26.30;96.90
212;DHT22;16228;48.800;9.002;2022-08-20T09:16:09;26.30;96.90
212;DHT22;16228;48.800;9.002;2022-08-20T09:18:36;26.40;96.30
212;DHT22;16228;48.800;9.002;2022-08-20T09:21:04;26.50;96.50
212;DHT22;16228;48.800;9.002;2022-08-20T09:23:31;26.50;95.30
212;DHT22;16228;48.800;9.002;2022-08-20T09:25:58;26.60;96.80
212;DHT22;16228;48.800;9.002;2022-08-20T09:28:25;26.60;95.20
212;DHT22;16228;48.800;9.002;2022-08-20T09:30:52;26.90;94.50
212;DHT22;16228;48.800;9.002;2022-08-20T09:33:20;27.00;92.80
212;DHT22;16228;48.800;9.002;2022-08-20T09:35:47;27.10;94.60
212;DHT22;16228;48.800;9.002;2022-08-20T09:38:14;27.20;94.80
212;DHT22;16228;48.800;9.002;2022-08-20T09:40:41;27.40;92.80
212;DHT22;16228;48.800;9.002;2022-08-20T09:43:09;27.40;93.90
212;DHT22;16228;48.800;9.002;2022-08-20T09:45:36;27.50;92.90
212;DHT22;16228;48.800;9.002;2022-08-20T09:48:03;27.40;94.50
212;DHT22;16228;48.800;9.002;2022-08-20T09:50:34;27.30;94.20
212;DHT22;16228;48.800;9.002;2022-08-20T09:53:03;27.60;94.70
212;DHT22;16228;48.800;9.002;2022-08-20T09:55:33;28.20;93.10
212;DHT22;16228;48.800;9.002;2022-08-20T09:58:02;28.70;90.70
212;DHT22;16228;48.800;9.002;2022-08-20T10:00:29;28.90;91.00
212;DHT22;16228;48.800;9.002;2022-08-20T10:02:56;29.00;90.90
212;DHT22;16228;48.800;9.002;2022-08-20T10:05:25;29.30;90.90
212;DHT22;16228;48.800;9.002;2022-08-20T10:07:53;30.10;86.40
212;DHT22;16228;48.800;9.002;2022-08-20T10:10:20;30.70;85.80
212;DHT22;16228;48.800;9.002;2022-08-20T10:12:47;31.00;85.70
212;DHT22;16228;48.800;9.002;2022-08-20T10:15:14;31.00;86.40
212;DHT22;16228;48.800;9.002;2022-08-20T10:17:42;30.60;86.40
212;DHT22;16228;48.800;9.002;2022-08-20T10:20:11;29.80;87.80
212;DHT22;16228;48.800;9.002;2022-08-20T10:22:39;28.90;89.40
212;DHT22;16228;48.800;9.002;2022-08-20T10:25:08;28.20;92.70
212;DHT22;16228;48.800;9.002;2022-08-20T10:27:35;27.30;93.70
212;DHT22;16228;48.800;9.002;2022-08-20T10:30:03;26.80;95.90
212;DHT22;16228;48.800;9.002;2022-08-20T10:32:30;26.40;96.40
212;DHT22;16228;48.800;9.002;2022-08-20T10:34:57;26.20;96.90
212;DHT22;16228;48.800;9.002;2022-08-20T10:37:25;26.10;96.90
212;DHT22;16228;48.800;9.002;2022-08-20T10:39:52;26.00;96.90
212;DHT22;16228;48.800;9.002;2022-08-20T10:42:21;26.10;96.90
212;DHT22;16228;48.800;9.002;2022-08-20T10:44:48;26.60;96.90
212;DHT22;16228;48.800;9.002;2022-08-20T10:47:20;27.10;96.90
212;DHT22;16228;48.800;9.002;2022-08-20T10:49:49;27.50;96.10
212;DHT22;16228;48.800;9.002;2022-08-20T10:52:16;27.70;94.90
212;DHT22;16228;48.800;9.002;2022-08-20T10:54:43;27.70;95.00
212;DHT22;16228;48.800;9.002;2022-08-20T10:57:13;27.50;94.10
212;DHT22;16228;48.800;9.002;2022-08-20T10:59:43;27.30;93.60
212;DHT22;16228;48.800;9.002;2022-08-20T11:02:11;27.00;95.30
212;DHT22;16228;48.800;9.002;2022-08-20T11:04:38;26.80;94.90
212;DHT22;16228;48.800;9.002;2022-08-20T11:07:10;26.50;96.00
212;DHT22;16228;48.800;9.002;2022-08-20T11:09:38;26.40;96.90
212;DHT22;16228;48.800;9.002;2022-08-20T11:12:05;26.30;96.90
212;DHT22;16228;48.800;9.002;2022-08-20T11:14:32;26.30;96.90
212;DHT22;16228;48.800;9.002;2022-08-20T11:17:01;26.30;96.90
212;DHT22;16228;48.800;9.002;2022-08-20T11:19:29;26.20;96.90
212;DHT22;16228;48.800;9.002;2022-08-20T11:21:55;26.30;96.90
212;DHT22;16228;48.800;9.002;2022-08-20T11:24:22;26.40;96.90
212;DHT22;16228;48.800;9.002;2022-08-20T11:26:50;26.50;96.90
212;DHT22;16228;48.800;9.002;2022-08-20T11:29:18;26.50;96.90
212;DHT22;16228;48.800;9.002;2022-08-20T11:31:47;26.40;96.90
212;DHT22;16228;48.800;9.002;2022-08-20T11:34:15;26.30;96.90
212;DHT22;16228;48.800;9.002;2022-08-20T11:36:43;26.20;96.90
212;DHT22;16228;48.800;9.002;2022-08-20T11:39:10;25.90;96.90
212;DHT22;16228;48.800;9.002;2022-08-20T11:41:37;25.60;96.90
212;DHT22;16228;48.800;9.002;2022-08-20T11:44:05;25.20;96.90
212;DHT22;16228;48.800;9.002;2022-08-20T11:46:32;25.00;96.90
212;DHT22;16228;48.800;9.002;2022-08-20T11:48:59;24.80;96.90
212;DHT22;16228;48.800;9.002;2022-08-20T11:51:28;24.80;96.90
212;DHT22;16228;48.800;9.002;2022-08-20T11:53:55;24.80;96.90
212;DHT22;16228;48.800;9.002;2022-08-20T11:56:22;24.90;96.90
212;DHT22;16228;48.800;9.002;2022-08-20T11:58:49;25.00;96.90
212;DHT22;16228;48.800;9.002;2022-08-20T12:01:16;25.10;96.90
212;DHT22;16228;48.800;9.002;2022-08-20T12:03:43;25.40;96.90
212;DHT22;16228;48.800;9.002;2022-08-20T12:06:10;25.80;96.90
212;DHT22;16228;48.800;9.002;2022-08-20T12:08:39;26.00;96.90
212;DHT22;16228;48.800;9.002;2022-08-20T12:11:06;26.30;96.90
212;DHT22;16228;48.800;9.002;2022-08-20T12:13:35;26.40;95.80
212;DHT22;16228;48.800;9.002;2022-08-20T12:16:03;26.60;95.30
212;DHT22;16228;48.800;9.002;2022-08-20T12:18:30;26.90;94.70
212;DHT22;16228;48.800;9.002;2022-08-20T12:20:58;27.40;92.80
212;DHT22;16228;48.800;9.002;2022-08-20T12:23:25;27.90;91.90
212;DHT22;16228;48.800;9.002;2022-08-20T12:25:54;28.10;91.70
212;DHT22;16228;48.800;9.002;2022-08-20T12:28:21;27.80;92.60
212;DHT22;16228;48.800;9.002;2022-08-20T12:30:48;27.50;93.10
212;DHT22;16228;48.800;9.002;2022-08-20T12:33:15;27.10;94.50
212;DHT22;16228;48.800;9.002;2022-08-20T12:35:42;26.80;95.50
212;DHT22;16228;48.800;9.002;2022-08-20T12:38:09;26.60;96.90
212;DHT22;16228;48.800;9.002;2022-08-20T12:40:36;26.50;96.30
212;DHT22;16228;48.800;9.002;2022-08-20T12:43:04;26.50;96.00
212;DHT22;16228;48.800;9.002;2022-08-20T12:45:32;26.60;95.80
212;DHT22;16228;48.800;9.002;2022-08-20T12:48:01;27.10;96.40
212;DHT22;16228;48.800;9.002;2022-08-20T12:50:29;27.80;92.90
212;DHT22;16228;48.800;9.002;2022-08-20T12:52:56;28.70;88.70
212;DHT22;16228;48.800;9.002;2022-08-20T12:55:23;30.00;87.20
212;DHT22;16228;48.800;9.002;2022-08-20T12:57:52;31.00;86.70
212;DHT22;16228;48.800;9.002;2022-08-20T13:00:24;31.40;83.20
212;DHT22;16228;48.800;9.002;2022-08-20T13:02:53;31.70;82.80
212;DHT22;16228;48.800;9.002;2022-08-20T13:05:22;32.20;80.70
212;DHT22;16228;48.800;9.002;2022-08-20T13:07:49;32.40;78.90
212;DHT22;16228;48.800;9.002;2022-08-20T13:10:19;32.20;79.40
212;DHT22;16228;48.800;9.002;2022-08-20T13:12:47;32.00;79.40
212;DHT22;16228;48.800;9.002;2022-08-20T13:15:14;31.70;79.20
212;DHT22;16228;48.800;9.002;2022-08-20T13:17:42;31.30;79.80
212;DHT22;16228;48.800;9.002;2022-08-20T13:20:12;31.10;80.00
212;DHT22;16228;48.800;9.002;2022-08-20T13:22:40;31.10;79.40
212;DHT22;16228;48.800;9.002;2022-08-20T13:25:08;30.70;81.00
212;DHT22;16228;48.800;9.002;2022-08-20T13:27:35;30.60;82.00
212;DHT22;16228;48.800;9.002;2022-08-20T13:30:05;30.50;81.30
212;DHT22;16228;48.800;9.002;2022-08-20T13:32:32;30.20;82.40
212;DHT22;16228;48.800;9.002;2022-08-20T13:35:01;30.10;83.90
212;DHT22;16228;48.800;9.002;2022-08-20T13:37:28;30.00;83.00
212;DHT22;16228;48.800;9.002;2022-08-20T13:39:57;29.90;84.00
212;DHT22;16228;48.800;9.002;2022-08-20T13:42:25;29.90;83.70
212;DHT22;16228;48.800;9.002;2022-08-20T13:44:52;29.90;81.80
212;DHT22;16228;48.800;9.002;2022-08-20T13:47:23;29.90;80.70
212;DHT22;16228;48.800;9.002;2022-08-20T13:49:54;29.80;78.60
212;DHT22;16228;48.800;9.002;2022-08-20T13:52:24;29.60;82.30
212;DHT22;16228;48.800;9.002;2022-08-20T13:54:51;29.60;81.60
212;DHT22;16228;48.800;9.002;2022-08-20T13:57:19;29.50;79.80
212;DHT22;16228;48.800;9.002;2022-08-20T13:59:49;29.50;80.70
212;DHT22;16228;48.800;9.002;2022-08-20T14:02:16;29.40;82.60
212;DHT22;16228;48.800;9.002;2022-08-20T14:04:43;29.30;79.20
212;DHT22;16228;48.800;9.002;2022-08-20T14:07:12;29.20;81.10
212;DHT22;16228;48.800;9.002;2022-08-20T14:09:43;29.20;79.00
212;DHT22;16228;48.800;9.002;2022-08-20T14:12:12;29.10;80.40
212;DHT22;16228;48.800;9.002;2022-08-20T14:14:40;28.80;81.60
212;DHT22;16228;48.800;9.002;2022-08-20T14:17:15;28.60;80.80
212;DHT22;16228;48.800;9.002;2022-08-20T14:19:43;28.60;81.50
212;DHT22;16228;48.800;9.002;2022-08-20T14:22:10;28.40;80.80
212;DHT22;16228;48.800;9.002;2022-08-20T14:24:37;28.30;79.40
212;DHT22;16228;48.800;9.002;2022-08-20T14:27:06;28.30;81.10
212;DHT22;16228;48.800;9.002;2022-08-20T14:29:35;28.40;78.10
212;DHT22;16228;48.800;9.002;2022-08-20T14:32:03;28.30;77.00
212;DHT22;16228;48.800;9.002;2022-08-20T14:34:31;28.20;78.50
212;DHT22;16228;48.800;9.002;2022-08-20T14:37:09;28.10;79.00
212;DHT22;16228;48.800;9.002;2022-08-20T14:39:36;27.90;79.30
212;DHT22;16228;48.800;9.002;2022-08-20T14:42:05;27.80;79.30
212;DHT22;16228;48.800;9.002;2022-08-20T14:44:32;27.70;79.00
212;DHT22;16228;48.800;9.002;2022-08-20T14:47:12;27.50;78.40
212;DHT22;16228;48.800;9.002;2022-08-20T14:49:40;27.40;80.50
212;DHT22;16228;48.800;9.002;2022-08-20T14:52:07;27.30;79.70
212;DHT22;16228;48.800;9.002;2022-08-20T14:54:34;27.20;79.40
212;DHT22;16228;48.800;9.002;2022-08-20T14:57:02;27.20;81.10
212;DHT22;16228;48.800;9.002;2022-08-20T14:59:30;27.10;80.40
212;DHT22;16228;48.800;9.002;2022-08-20T15:01:57;26.80;80.30
212;DHT22;16228;48.800;9.002;2022-08-20T15:04:25;26.60;81.50
212;DHT22;16228;48.800;9.002;2022-08-20T15:06:53;26.60;81.70
212;DHT22;16228;48.800;9.002;2022-08-20T15:09:20;26.60;81.30
212;DHT22;16228;48.800;9.002;2022-08-20T15:11:47;26.60;82.20
212;DHT22;16228;48.800;9.002;2022-08-20T15:14:14;26.70;80.50
212;DHT22;16228;48.800;9.002;2022-08-20T15:16:42;26.60;80.20
212;DHT22;16228;48.800;9.002;2022-08-20T15:19:09;26.60;80.70
212;DHT22;16228;48.800;9.002;2022-08-20T15:21:36;26.60;80.80
212;DHT22;16228;48.800;9.002;2022-08-20T15:24:04;26.60;81.60
212;DHT22;16228;48.800;9.002;2022-08-20T15:26:31;26.60;80.60
212;DHT22;16228;48.800;9.002;2022-08-20T15:28:58;26.60;80.30
212;DHT22;16228;48.800;9.002;2022-08-20T15:31:25;26.50;79.20
212;DHT22;16228;48.800;9.002;2022-08-20T15:33:53;26.40;80.10
212;DHT22;16228;48.800;9.002;2022-08-20T15:36:20;26.30;80.70
212;DHT22;16228;48.800;9.002;2022-08-20T15:38:47;26.30;80.20
212;DHT22;16228;48.800;9.002;2022-08-20T15:41:14;26.30;81.40
212;DHT22;16228;48.800;9.002;2022-08-20T15:43:41;26.30;81.00
212;DHT22;16228;48.800;9.002;2022-08-20T15:46:08;26.30;80.60
212;DHT22;16228;48.800;9.002;2022-08-20T15:48:39;26.30;81.20
212;DHT22;16228;48.800;9.002;2022-08-20T15:51:26;26.30;80.60
212;DHT22;16228;48.800;9.002;2022-08-20T15:53:58;26.20;80.20
212;DHT22;16228;48.800;9.002;2022-08-20T15:56:48;26.20;79.80
212;DHT22;16228;48.800;9.002;2022-08-20T15:59:29;26.10;81.10
212;DHT22;16228;48.800;9.002;2022-08-20T16:02:11;25.90;79.40
212;DHT22;16228;48.800;9.002;2022-08-20T16:05:06;25.90;80.30
212;DHT22;16228;48.800;9.002;2022-08-20T16:07:42;25.90;80.30
212;DHT22;16228;48.800;9.002;2022-08-20T16:10:17;25.90;80.60